sensor_id;sensor_type;location;lat;lon;timestamp;P1;durP1;ratioP1;P2;durP2;ratioP2
3083;SDS011;1552;51.952;7.618;2023-01-16T00:00:44;2.97;;;1.50;;
3083;SDS011;1552;51.952;7.618;2023-01-16T00:03:10;5.13;;;1.73;;
3083;SDS011;1552;51.952;7.618;2023-01-16T00:05:37;6.37;;;1.50;;
3083;SDS011;1552;51.952;7.618;2023-01-16T00:08:03;3.23;;;1.40;;
3083;SDS011;1552;51.952;7.618;2023-01-16T00:10:29;5.70;;;1.60;;
3083;SDS011;1552;51.952;7.618;2023-01-16T00:12:57;4.60;;;1.50;;
3083;SDS011;1552;51.952;7.618;2023-01-16T00:15:23;4.20;;;1.37;;
3083;SDS011;1552;51.952;7.618;2023-01-16T00:17:50;4.83;;;1.50;;
3083;SDS011;1552;51.952;7.618;2023-01-16T00:20:16;5.70;;;1.60;;
3083;SDS011;1552;51.952;7.618;2023-01-16T00:22:42;2.90;;;1.17;;
3083;SDS011;1552;51.952;7.618;2023-01-16T00:25:08;5.17;;;2.03;;
3083;SDS011;1552;51.952;7.618;2023-01-16T00:27:35;6.60;;;1.80;;
3083;SDS011;1552;51.952;7.618;2023-01-16T00:30:03;5.77;;;1.43;;
3083;SDS011;1552;51.952;7.618;2023-01-16T00:32:29;5.33;;;1.43;;
3083;SDS011;1552;51.952;7.618;2023-01-16T00:34:56;3.53;;;1.70;;
3083;SDS011;1552;51.952;7.618;2023-01-16T00:37:22;6.03;;;1.80;;
3083;SDS011;1552;51.952;7.618;2023-01-16T00:39:48;6.10;;;2.20;;
3083;SDS011;1552;51.952;7.618;2023-01-16T00:42:16;3.93;;;1.63;;
3083;SDS011;1552;51.952;7.618;2023-01-16T00:44:42;3.77;;;1.90;;
3083;SDS011;1552;51.952;7.618;2023-01-16T00:47:10;4.33;;;1.57;;
3083;SDS011;1552;51.952;7.618;2023-01-16T00:49:36;5.80;;;1.53;;
3083;SDS011;1552;51.952;7.618;2023-01-16T00:52:03;8.30;;;1.90;;
3083;SDS011;1552;51.952;7.618;2023-01-16T00:54:29;6.07;;;1.67;;
3083;SDS011;1552;51.952;7.618;2023-01-16T00:56:55;4.97;;;1.50;;
3083;SDS011;1552;51.952;7.618;2023-01-16T00:59:22;5.83;;;1.93;;
3083;SDS011;1552;51.952;7.618;2023-01-16T01:01:48;4.90;;;1.50;;
3083;SDS011;1552;51.952;7.618;2023-01-16T01:04:16;4.33;;;1.67;;
3083;SDS011;1552;51.952;7.618;2023-01-16T01:06:42;5.50;;;2.00;;
3083;SDS011;1552;51.952;7.618;2023-01-16T01:09:09;7.67;;;2.03;;
3083;SDS011;1552;51.952;7.618;2023-01-16T01:11:35;6.07;;;2.10;;
3083;SDS011;1552;51.952;7.618;2023-01-16T01:14:01;5.87;;;2.10;;
3083;SDS011;1552;51.952;7.618;2023-01-16T01:16:27;5.37;;;2.03;;
3083;SDS011;1552;51.952;7.618;2023-01-16T01:18:54;5.83;;;3.40;;
3083;SDS011;1552;51.952;7.618;2023-01-16T01:21:21;2.83;;;1.80;;
3083;SDS011;1552;51.952;7.618;2023-01-16T01:23:48;5.93;;;2.00;;
3083;SDS011;1552;51.952;7.618;2023-01-16T01:26:15;4.00;;;1.67;;
3083;SDS011;1552;51.952;7.618;2023-01-16T01:28:42;6.27;;;2.30;;
3083;SDS011;1552;51.952;7.618;2023-01-16T01:31:09;6.73;;;2.50;;
3083;SDS011;1552;51.952;7.618;2023-01-16T01:33:35;5.13;;;2.50;;
3083;SDS011;1552;51.952;7.618;2023-01-16T01:36:02;5.03;;;2.10;;
3083;SDS011;1552;51.952;7.618;2023-01-16T01:38:30;7.80;;;1.70;;
3083;SDS011;1552;51.952;7.618;2023-01-16T01:40:56;2.87;;;1.50;;
3083;SDS011;1552;51.952;7.618;2023-01-16T01:43:38;3.67;;;1.80;;
3083;SDS011;1552;51.952;7.618;2023-01-16T01:46:04;2.90;;;1.80;;
3083;SDS011;1552;51.952;7.618;2023-01-16T01:48:33;3.00;;;1.93;;
3083;SDS011;1552;51.952;7.618;2023-01-16T01:51:02;5.90;;;2.23;;
3083;SDS011;1552;51.952;7.618;2023-01-16T01:53:34;5.43;;;2.57;;
3083;SDS011;1552;51.952;7.618;2023-01-16T01:56:12;5.87;;;2.73;;
3083;SDS011;1552;51.952;7.618;2023-01-16T01:58:40;3.83;;;2.40;;
3083;SDS011;1552;51.952;7.618;2023-01-16T02:01:07;6.30;;;2.37;;
3083;SDS011;1552;51.952;7.618;2023-01-16T02:03:34;5.83;;;2.13;;
3083;SDS011;1552;51.952;7.618;2023-01-16T02:06:03;7.23;;;2.40;;
3083;SDS011;1552;51.952;7.618;2023-01-16T02:08:33;7.40;;;2.10;;
3083;SDS011;1552;51.952;7.618;2023-01-16T02:11:01;3.73;;;1.90;;
3083;SDS011;1552;51.952;7.618;2023-01-16T02:13:28;4.83;;;1.90;;
3083;SDS011;1552;51.952;7.618;2023-01-16T02:15:55;5.97;;;2.00;;
3083;SDS011;1552;51.952;7.618;2023-01-16T02:18:39;6.60;;;2.00;;
3083;SDS011;1552;51.952;7.618;2023-01-16T02:21:29;2.80;;;1.67;;
3083;SDS011;1552;51.952;7.618;2023-01-16T02:24:10;5.40;;;1.67;;
3083;SDS011;1552;51.952;7.618;2023-01-16T02:26:57;6.43;;;1.43;;
3083;SDS011;1552;51.952;7.618;2023-01-16T02:29:30;5.47;;;1.67;;
3083;SDS011;1552;51.952;7.618;2023-01-16T02:32:03;8.07;;;1.67;;
3083;SDS011;1552;51.952;7.618;2023-01-16T02:34:40;8.70;;;2.30;;
3083;SDS011;1552;51.952;7.618;2023-01-16T02:37:13;6.97;;;1.37;;
3083;SDS011;1552;51.952;7.618;2023-01-16T02:39:43;10.77;;;1.97;;
3083;SDS011;1552;51.952;7.618;2023-01-16T02:42:13;6.13;;;1.53;;
3083;SDS011;1552;51.952;7.618;2023-01-16T02:44:43;4.30;;;1.27;;
3083;SDS011;1552;51.952;7.618;2023-01-16T02:47:15;6.80;;;1.60;;
3083;SDS011;1552;51.952;7.618;2023-01-16T02:49:46;3.80;;;1.07;;
3083;SDS011;1552;51.952;7.618;2023-01-16T02:52:15;2.63;;;1.00;;
3083;SDS011;1552;51.952;7.618;2023-01-16T02:54:46;6.00;;;1.40;;
3083;SDS011;1552;51.952;7.618;2023-01-16T02:57:17;3.70;;;1.70;;
3083;SDS011;1552;51.952;7.618;2023-01-16T02:59:44;6.80;;;1.97;;
3083;SDS011;1552;51.952;7.618;2023-01-16T03:02:11;3.53;;;1.80;;
3083;SDS011;1552;51.952;7.618;2023-01-16T03:04:40;5.87;;;1.90;;
3083;SDS011;1552;51.952;7.618;2023-01-16T03:07:08;7.53;;;2.10;;
3083;SDS011;1552;51.952;7.618;2023-01-16T03:09:39;2.60;;;1.50;;
3083;SDS011;1552;51.952;7.618;2023-01-16T03:12:11;7.10;;;2.03;;
3083;SDS011;1552;51.952;7.618;2023-01-16T03:14:45;3.47;;;1.57;;
3083;SDS011;1552;51.952;7.618;2023-01-16T03:17:17;6.80;;;1.40;;
3083;SDS011;1552;51.952;7.618;2023-01-16T03:19:54;4.03;;;1.33;;
3083;SDS011;1552;51.952;7.618;2023-01-16T03:22:25;5.60;;;1.23;;
3083;SDS011;1552;51.952;7.618;2023-01-16T03:24:58;3.37;;;1.10;;
3083;SDS011;1552;51.952;7.618;2023-01-16T03:27:29;2.83;;;1.07;;
3083;SDS011;1552;51.952;7.618;2023-01-16T03:29:58;5.67;;;1.57;;
3083;SDS011;1552;51.952;7.618;2023-01-16T03:32:31;5.80;;;1.20;;
3083;SDS011;1552;51.952;7.618;2023-01-16T03:35:01;3.63;;;1.23;;
3083;SDS011;1552;51.952;7.618;2023-01-16T03:37:30;3.27;;;1.40;;
3083;SDS011;1552;51.952;7.618;2023-01-16T03:39:59;4.23;;;1.50;;
3083;SDS011;1552;51.952;7.618;2023-01-16T03:42:28;5.60;;;1.50;;
3083;SDS011;1552;51.952;7.618;2023-01-16T03:44:57;3.27;;;1.40;;
3083;SDS011;1552;51.952;7.618;2023-01-16T03:47:26;4.00;;;1.20;;
3083;SDS011;1552;51.952;7.618;2023-01-16T03:49:57;2.67;;;1.30;;
3083;SDS011;1552;51.952;7.618;2023-01-16T03:52:26;5.70;;;1.63;;
3083;SDS011;1552;51.952;7.618;2023-01-16T03:54:57;7.93;;;1.40;;
3083;SDS011;1552;51.952;7.618;2023-01-16T03:57:27;4.93;;;1.40;;
3083;SDS011;1552;51.952;7.618;2023-01-16T03:59:56;7.23;;;1.67;;
3083;SDS011;1552;51.952;7.618;2023-01-16T04:02:25;2.57;;;1.27;;
3083;SDS011;1552;51.952;7.618;2023-01-16T04:04:54;4.83;;;1.37;;
3083;SDS011;1552;51.952;7.618;2023-01-16T04:07:23;2.77;;;1.37;;
3083;SDS011;1552;51.952;7.618;2023-01-16T04:09:53;3.40;;;1.40;;
3083;SDS011;1552;51.952;7.618;2023-01-16T04:12:22;5.10;;;1.60;;
3083;SDS011;1552;51.952;7.618;2023-01-16T04:14:51;3.77;;;1.40;;
3083;SDS011;1552;51.952;7.618;2023-01-16T04:17:18;5.47;;;1.80;;
3083;SDS011;1552;51.952;7.618;2023-01-16T04:19:45;5.23;;;1.77;;
3083;SDS011;1552;51.952;7.618;2023-01-16T04:22:18;4.90;;;1.77;;
3083;SDS011;1552;51.952;7.618;2023-01-16T04:24:44;3.67;;;1.77;;
3083;SDS011;1552;51.952;7.618;2023-01-16T04:27:12;2.37;;;1.40;;
3083;SDS011;1552;51.952;7.618;2023-01-16T04:29:38;7.00;;;1.80;;
3083;SDS011;1552;51.952;7.618;2023-01-16T04:32:05;4.53;;;1.63;;
3083;SDS011;1552;51.952;7.618;2023-01-16T04:34:31;7.53;;;1.83;;
3083;SDS011;1552;51.952;7.618;2023-01-16T04:36:57;3.37;;;1.50;;
3083;SDS011;1552;51.952;7.618;2023-01-16T04:39:24;4.07;;;1.30;;
3083;SDS011;1552;51.952;7.618;2023-01-16T04:41:50;4.23;;;1.73;;
3083;SDS011;1552;51.952;7.618;2023-01-16T04:44:17;4.33;;;1.73;;
3083;SDS011;1552;51.952;7.618;2023-01-16T04:46:44;4.77;;;1.30;;
3083;SDS011;1552;51.952;7.618;2023-01-16T04:49:10;5.50;;;1.40;;
3083;SDS011;1552;51.952;7.618;2023-01-16T04:51:37;2.53;;;1.10;;
3083;SDS011;1552;51.952;7.618;2023-01-16T04:54:03;3.83;;;1.10;;
3083;SDS011;1552;51.952;7.618;2023-01-16T04:56:30;3.43;;;1.10;;
3083;SDS011;1552;51.952;7.618;2023-01-16T04:58:56;3.90;;;1.20;;
3083;SDS011;1552;51.952;7.618;2023-01-16T05:01:24;4.77;;;1.47;;
3083;SDS011;1552;51.952;7.618;2023-01-16T05:03:50;3.20;;;1.10;;
3083;SDS011;1552;51.952;7.618;2023-01-16T05:06:17;3.17;;;1.00;;
3083;SDS011;1552;51.952;7.618;2023-01-16T05:08:43;2.37;;;1.37;;
3083;SDS011;1552;51.952;7.618;2023-01-16T05:11:09;2.60;;;1.20;;
3083;SDS011;1552;51.952;7.618;2023-01-16T05:13:36;2.30;;;1.17;;
3083;SDS011;1552;51.952;7.618;2023-01-16T05:16:02;2.00;;;1.23;;
3083;SDS011;1552;51.952;7.618;2023-01-16T05:18:30;4.70;;;1.20;;
3083;SDS011;1552;51.952;7.618;2023-01-16T05:20:57;1.63;;;1.00;;
3083;SDS011;1552;51.952;7.618;2023-01-16T05:23:24;2.87;;;1.20;;
3083;SDS011;1552;51.952;7.618;2023-01-16T05:25:50;2.63;;;1.20;;
3083;SDS011;1552;51.952;7.618;2023-01-16T05:28:18;3.00;;;1.13;;
3083;SDS011;1552;51.952;7.618;2023-01-16T05:30:46;2.40;;;1.53;;
3083;SDS011;1552;51.952;7.618;2023-01-16T05:33:13;4.63;;;1.30;;
3083;SDS011;1552;51.952;7.618;2023-01-16T05:35:40;3.37;;;1.30;;
3083;SDS011;1552;51.952;7.618;2023-01-16T05:38:07;3.63;;;1.10;;
3083;SDS011;1552;51.952;7.618;2023-01-16T05:40:33;3.43;;;1.30;;
3083;SDS011;1552;51.952;7.618;2023-01-16T05:43:00;2.93;;;1.10;;
3083;SDS011;1552;51.952;7.618;2023-01-16T05:45:26;5.00;;;1.80;;
3083;SDS011;1552;51.952;7.618;2023-01-16T05:47:52;3.93;;;1.50;;
3083;SDS011;1552;51.952;7.618;2023-01-16T05:50:18;1.77;;;1.03;;
3083;SDS011;1552;51.952;7.618;2023-01-16T05:52:46;2.77;;;1.30;;
3083;SDS011;1552;51.952;7.618;2023-01-16T05:55:12;4.33;;;1.20;;
3083;SDS011;1552;51.952;7.618;2023-01-16T05:57:39;3.40;;;1.00;;
3083;SDS011;1552;51.952;7.618;2023-01-16T06:00:06;3.60;;;0.90;;
3083;SDS011;1552;51.952;7.618;2023-01-16T06:02:32;3.33;;;1.47;;
3083;SDS011;1552;51.952;7.618;2023-01-16T06:04:59;4.73;;;1.07;;
3083;SDS011;1552;51.952;7.618;2023-01-16T06:07:25;2.33;;;1.27;;
3083;SDS011;1552;51.952;7.618;2023-01-16T06:09:53;4.97;;;1.63;;
3083;SDS011;1552;51.952;7.618;2023-01-16T06:12:19;3.03;;;1.13;;
3083;SDS011;1552;51.952;7.618;2023-01-16T06:14:46;2.70;;;1.40;;
3083;SDS011;1552;51.952;7.618;2023-01-16T06:17:12;2.03;;;1.00;;
3083;SDS011;1552;51.952;7.618;2023-01-16T06:19:39;4.10;;;1.57;;
3083;SDS011;1552;51.952;7.618;2023-01-16T06:22:05;5.57;;;1.57;;
3083;SDS011;1552;51.952;7.618;2023-01-16T06:24:32;1.60;;;1.10;;
3083;SDS011;1552;51.952;7.618;2023-01-16T06:26:59;2.20;;;1.63;;
3083;SDS011;1552;51.952;7.618;2023-01-16T06:29:26;4.07;;;1.50;;
3083;SDS011;1552;51.952;7.618;2023-01-16T06:31:52;5.50;;;1.40;;
3083;SDS011;1552;51.952;7.618;2023-01-16T06:34:19;3.57;;;1.43;;
3083;SDS011;1552;51.952;7.618;2023-01-16T06:36:45;4.00;;;1.70;;
3083;SDS011;1552;51.952;7.618;2023-01-16T06:39:13;2.50;;;1.20;;
3083;SDS011;1552;51.952;7.618;2023-01-16T06:41:40;6.47;;;1.57;;
3083;SDS011;1552;51.952;7.618;2023-01-16T06:44:07;4.97;;;1.47;;
3083;SDS011;1552;51.952;7.618;2023-01-16T06:46:35;2.40;;;1.23;;
3083;SDS011;1552;51.952;7.618;2023-01-16T06:49:01;4.47;;;1.27;;
3083;SDS011;1552;51.952;7.618;2023-01-16T06:51:27;2.00;;;0.97;;
3083;SDS011;1552;51.952;7.618;2023-01-16T06:53:54;1.37;;;1.03;;
3083;SDS011;1552;51.952;7.618;2023-01-16T06:56:20;3.10;;;1.20;;
3083;SDS011;1552;51.952;7.618;2023-01-16T06:58:47;1.47;;;1.00;;
3083;SDS011;1552;51.952;7.618;2023-01-16T07:01:14;2.67;;;1.20;;
3083;SDS011;1552;51.952;7.618;2023-01-16T07:03:41;1.97;;;1.20;;
3083;SDS011;1552;51.952;7.618;2023-01-16T07:06:07;3.70;;;1.03;;
3083;SDS011;1552;51.952;7.618;2023-01-16T07:08:33;3.20;;;1.17;;
3083;SDS011;1552;51.952;7.618;2023-01-16T07:11:00;4.73;;;1.50;;
3083;SDS011;1552;51.952;7.618;2023-01-16T07:13:26;4.70;;;1.17;;
3083;SDS011;1552;51.952;7.618;2023-01-16T07:15:54;3.80;;;1.20;;
3083;SDS011;1552;51.952;7.618;2023-01-16T07:18:39;3.10;;;1.20;;
3083;SDS011;1552;51.952;7.618;2023-01-16T07:21:32;1.87;;;1.20;;
3083;SDS011;1552;51.952;7.618;2023-01-16T07:24:16;2.87;;;1.13;;
3083;SDS011;1552;51.952;7.618;2023-01-16T07:26:44;2.53;;;1.20;;
3083;SDS011;1552;51.952;7.618;2023-01-16T07:29:12;4.47;;;1.20;;
3083;SDS011;1552;51.952;7.618;2023-01-16T07:31:38;3.37;;;1.00;;
3083;SDS011;1552;51.952;7.618;2023-01-16T07:34:07;2.43;;;1.50;;
3083;SDS011;1552;51.952;7.618;2023-01-16T07:36:35;7.27;;;1.90;;
3083;SDS011;1552;51.952;7.618;2023-01-16T07:39:02;4.60;;;2.57;;
3083;SDS011;1552;51.952;7.618;2023-01-16T07:41:28;1.30;;;1.20;;
3083;SDS011;1552;51.952;7.618;2023-01-16T07:43:54;5.80;;;1.30;;
3083;SDS011;1552;51.952;7.618;2023-01-16T07:46:21;2.60;;;1.10;;
3083;SDS011;1552;51.952;7.618;2023-01-16T07:48:47;2.80;;;1.07;;
3083;SDS011;1552;51.952;7.618;2023-01-16T07:51:17;2.77;;;1.60;;
3083;SDS011;1552;51.952;7.618;2023-01-16T07:53:43;4.10;;;0.93;;
3083;SDS011;1552;51.952;7.618;2023-01-16T07:56:09;6.27;;;1.40;;
3083;SDS011;1552;51.952;7.618;2023-01-16T07:58:36;2.73;;;1.00;;
3083;SDS011;1552;51.952;7.618;2023-01-16T08:01:04;3.67;;;1.10;;
3083;SDS011;1552;51.952;7.618;2023-01-16T08:03:31;3.50;;;0.97;;
3083;SDS011;1552;51.952;7.618;2023-01-16T08:05:57;2.43;;;1.00;;
3083;SDS011;1552;51.952;7.618;2023-01-16T08:08:25;4.73;;;1.20;;
3083;SDS011;1552;51.952;7.618;2023-01-16T08:10:54;3.83;;;1.20;;
3083;SDS011;1552;51.952;7.618;2023-01-16T08:13:21;4.57;;;1.40;;
3083;SDS011;1552;51.952;7.618;2023-01-16T08:15:47;2.00;;;1.40;;
3083;SDS011;1552;51.952;7.618;2023-01-16T08:18:15;4.73;;;1.00;;
3083;SDS011;1552;51.952;7.618;2023-01-16T08:20:42;2.10;;;1.00;;
3083;SDS011;1552;51.952;7.618;2023-01-16T08:23:09;2.60;;;1.30;;
3083;SDS011;1552;51.952;7.618;2023-01-16T08:25:37;5.07;;;1.03;;
3083;SDS011;1552;51.952;7.618;2023-01-16T08:28:04;1.63;;;1.27;;
3083;SDS011;1552;51.952;7.618;2023-01-16T08:30:30;3.20;;;1.20;;
3083;SDS011;1552;51.952;7.618;2023-01-16T08:32:57;3.37;;;1.43;;
3083;SDS011;1552;51.952;7.618;2023-01-16T08:35:24;2.13;;;1.17;;
3083;SDS011;1552;51.952;7.618;2023-01-16T08:37:50;3.53;;;1.77;;
3083;SDS011;1552;51.952;7.618;2023-01-16T08:40:17;1.27;;;1.00;;
3083;SDS011;1552;51.952;7.618;2023-01-16T08:42:44;2.20;;;1.20;;
3083;SDS011;1552;51.952;7.618;2023-01-16T08:45:28;6.03;;;2.40;;
3083;SDS011;1552;51.952;7.618;2023-01-16T08:48:12;3.40;;;1.83;;
3083;SDS011;1552;51.952;7.618;2023-01-16T08:50:58;7.03;;;1.60;;
3083;SDS011;1552;51.952;7.618;2023-01-16T08:53:41;2.33;;;1.20;;
3083;SDS011;1552;51.952;7.618;2023-01-16T08:56:08;4.20;;;1.30;;
3083;SDS011;1552;51.952;7.618;2023-01-16T08:58:36;4.27;;;1.73;;
3083;SDS011;1552;51.952;7.618;2023-01-16T09:01:02;5.43;;;1.17;;
3083;SDS011;1552;51.952;7.618;2023-01-16T09:03:28;2.87;;;1.30;;
3083;SDS011;1552;51.952;7.618;2023-01-16T09:05:55;2.53;;;1.40;;
3083;SDS011;1552;51.952;7.618;2023-01-16T09:08:21;1.73;;;1.27;;
3083;SDS011;1552;51.952;7.618;2023-01-16T09:10:47;2.70;;;1.10;;
3083;SDS011;1552;51.952;7.618;2023-01-16T09:13:27;4.03;;;1.27;;
3083;SDS011;1552;51.952;7.618;2023-01-16T09:16:12;6.43;;;1.70;;
3083;SDS011;1552;51.952;7.618;2023-01-16T09:18:39;4.13;;;1.67;;
3083;SDS011;1552;51.952;7.618;2023-01-16T09:21:05;4.27;;;1.40;;
3083;SDS011;1552;51.952;7.618;2023-01-16T09:23:31;2.40;;;1.50;;
3083;SDS011;1552;51.952;7.618;2023-01-16T09:25:58;3.90;;;1.40;;
3083;SDS011;1552;51.952;7.618;2023-01-16T09:28:24;3.10;;;1.57;;
3083;SDS011;1552;51.952;7.618;2023-01-16T09:30:50;2.10;;;1.30;;
3083;SDS011;1552;51.952;7.618;2023-01-16T09:33:18;3.30;;;1.27;;
3083;SDS011;1552;51.952;7.618;2023-01-16T09:35:44;2.40;;;1.60;;
3083;SDS011;1552;51.952;7.618;2023-01-16T09:38:11;6.43;;;1.90;;
3083;SDS011;1552;51.952;7.618;2023-01-16T09:40:37;3.17;;;1.60;;
3083;SDS011;1552;51.952;7.618;2023-01-16T09:43:07;4.33;;;1.80;;
3083;SDS011;1552;51.952;7.618;2023-01-16T09:45:53;4.70;;;1.23;;
3083;SDS011;1552;51.952;7.618;2023-01-16T09:48:23;4.67;;;1.93;;
3083;SDS011;1552;51.952;7.618;2023-01-16T09:50:51;2.30;;;1.30;;
3083;SDS011;1552;51.952;7.618;2023-01-16T09:53:20;6.20;;;1.70;;
3083;SDS011;1552;51.952;7.618;2023-01-16T09:56:07;4.53;;;1.30;;
3083;SDS011;1552;51.952;7.618;2023-01-16T09:58:55;3.90;;;1.30;;
3083;SDS011;1552;51.952;7.618;2023-01-16T10:01:24;2.23;;;1.27;;
3083;SDS011;1552;51.952;7.618;2023-01-16T10:03:54;2.50;;;1.40;;
3083;SDS011;1552;51.952;7.618;2023-01-16T10:06:23;2.17;;;1.50;;
3083;SDS011;1552;51.952;7.618;2023-01-16T10:08:57;3.70;;;1.13;;
3083;SDS011;1552;51.952;7.618;2023-01-16T10:11:28;6.20;;;2.70;;
3083;SDS011;1552;51.952;7.618;2023-01-16T10:19:26;4.33;;;1.30;;
3083;SDS011;1552;51.952;7.618;2023-01-16T10:22:00;1.93;;;1.20;;
3083;SDS011;1552;51.952;7.618;2023-01-16T10:24:31;5.83;;;1.30;;
3083;SDS011;1552;51.952;7.618;2023-01-16T10:27:00;2.33;;;1.23;;
3083;SDS011;1552;51.952;7.618;2023-01-16T10:29:30;6.80;;;1.43;;
3083;SDS011;1552;51.952;7.618;2023-01-16T10:31:58;4.83;;;1.43;;
3083;SDS011;1552;51.952;7.618;2023-01-16T10:34:30;6.77;;;1.50;;
3083;SDS011;1552;51.952;7.618;2023-01-16T10:36:59;3.77;;;1.50;;
3083;SDS011;1552;51.952;7.618;2023-01-16T10:39:28;7.10;;;1.80;;
3083;SDS011;1552;51.952;7.618;2023-01-16T10:41:57;2.03;;;1.03;;
3083;SDS011;1552;51.952;7.618;2023-01-16T10:44:43;3.30;;;1.27;;
3083;SDS011;1552;51.952;7.618;2023-01-16T10:47:30;2.03;;;1.00;;
3083;SDS011;1552;51.952;7.618;2023-01-16T10:50:16;4.90;;;1.60;;
3083;SDS011;1552;51.952;7.618;2023-01-16T10:52:42;1.80;;;1.03;;
3083;SDS011;1552;51.952;7.618;2023-01-16T10:55:09;4.07;;;1.40;;
3083;SDS011;1552;51.952;7.618;2023-01-16T10:57:36;3.10;;;1.27;;
3083;SDS011;1552;51.952;7.618;2023-01-16T11:00:07;1.67;;;1.10;;
3083;SDS011;1552;51.952;7.618;2023-01-16T11:02:37;1.03;;;0.90;;
3083;SDS011;1552;51.952;7.618;2023-01-16T11:07:48;2.30;;;1.00;;
3083;SDS011;1552;51.952;7.618;2023-01-16T11:10:14;5.40;;;1.20;;
3083;SDS011;1552;51.952;7.618;2023-01-16T11:12:40;7.87;;;1.47;;
3083;SDS011;1552;51.952;7.618;2023-01-16T11:15:25;1.10;;;1.00;;
3083;SDS011;1552;51.952;7.618;2023-01-16T11:18:20;3.90;;;1.17;;
3083;SDS011;1552;51.952;7.618;2023-01-16T11:20:55;2.67;;;1.40;;
3083;SDS011;1552;51.952;7.618;2023-01-16T11:23:24;2.00;;;0.97;;
3083;SDS011;1552;51.952;7.618;2023-01-16T11:25:51;1.10;;;0.90;;
3083;SDS011;1552;51.952;7.618;2023-01-16T11:28:20;1.93;;;0.90;;
3083;SDS011;1552;51.952;7.618;2023-01-16T11:30:47;2.30;;;0.93;;
3083;SDS011;1552;51.952;7.618;2023-01-16T11:33:15;1.40;;;0.93;;
3083;SDS011;1552;51.952;7.618;2023-01-16T11:35:44;1.83;;;0.90;;
3083;SDS011;1552;51.952;7.618;2023-01-16T11:38:13;2.93;;;0.80;;
3083;SDS011;1552;51.952;7.618;2023-01-16T11:40:45;2.80;;;1.50;;
3083;SDS011;1552;51.952;7.618;2023-01-16T11:43:13;1.57;;;1.00;;
3083;SDS011;1552;51.952;7.618;2023-01-16T11:45:57;2.37;;;1.00;;
3083;SDS011;1552;51.952;7.618;2023-01-16T11:48:33;1.53;;;1.00;;
3083;SDS011;1552;51.952;7.618;2023-01-16T11:51:00;1.53;;;0.93;;
3083;SDS011;1552;51.952;7.618;2023-01-16T11:53:28;1.37;;;0.77;;
3083;SDS011;1552;51.952;7.618;2023-01-16T11:55:59;1.13;;;0.87;;
3083;SDS011;1552;51.952;7.618;2023-01-16T11:58:32;7.67;;;2.27;;
3083;SDS011;1552;51.952;7.618;2023-01-16T12:01:02;3.70;;;1.23;;
3083;SDS011;1552;51.952;7.618;2023-01-16T12:06:15;5.17;;;0.97;;
3083;SDS011;1552;51.952;7.618;2023-01-16T12:08:57;0.73;;;0.60;;
3083;SDS011;1552;51.952;7.618;2023-01-16T12:11:33;2.23;;;0.80;;
3083;SDS011;1552;51.952;7.618;2023-01-16T12:14:03;1.27;;;0.63;;
3083;SDS011;1552;51.952;7.618;2023-01-16T12:16:46;1.57;;;0.90;;
3083;SDS011;1552;51.952;7.618;2023-01-16T12:19:21;1.87;;;0.70;;
3083;SDS011;1552;51.952;7.618;2023-01-16T12:21:53;1.07;;;0.97;;
3083;SDS011;1552;51.952;7.618;2023-01-16T12:24:25;1.77;;;1.03;;
3083;SDS011;1552;51.952;7.618;2023-01-16T12:27:04;1.03;;;0.80;;
3083;SDS011;1552;51.952;7.618;2023-01-16T12:29:35;2.40;;;1.67;;
3083;SDS011;1552;51.952;7.618;2023-01-16T12:32:07;1.80;;;1.00;;
3083;SDS011;1552;51.952;7.618;2023-01-16T12:37:28;0.77;;;0.77;;
3083;SDS011;1552;51.952;7.618;2023-01-16T12:40:01;1.13;;;0.83;;
3083;SDS011;1552;51.952;7.618;2023-01-16T12:42:34;0.87;;;0.60;;
3083;SDS011;1552;51.952;7.618;2023-01-16T12:45:28;0.70;;;0.70;;
3083;SDS011;1552;51.952;7.618;2023-01-16T12:48:04;0.77;;;0.70;;
3083;SDS011;1552;51.952;7.618;2023-01-16T12:50:39;1.13;;;0.63;;
3083;SDS011;1552;51.952;7.618;2023-01-16T12:56:05;2.30;;;0.70;;
3083;SDS011;1552;51.952;7.618;2023-01-16T12:58:37;1.23;;;1.00;;
3083;SDS011;1552;51.952;7.618;2023-01-16T13:01:06;1.30;;;0.50;;
3083;SDS011;1552;51.952;7.618;2023-01-16T13:03:35;1.10;;;0.70;;
3083;SDS011;1552;51.952;7.618;2023-01-16T13:06:04;2.13;;;1.20;;
3083;SDS011;1552;51.952;7.618;2023-01-16T13:08:34;2.23;;;1.50;;
3083;SDS011;1552;51.952;7.618;2023-01-16T13:11:04;0.70;;;0.70;;
3083;SDS011;1552;51.952;7.618;2023-01-16T13:13:52;1.37;;;0.80;;
3083;SDS011;1552;51.952;7.618;2023-01-16T13:16:20;1.67;;;0.90;;
3083;SDS011;1552;51.952;7.618;2023-01-16T13:18:50;1.70;;;0.80;;
3083;SDS011;1552;51.952;7.618;2023-01-16T13:21:18;2.30;;;0.90;;
3083;SDS011;1552;51.952;7.618;2023-01-16T13:23:47;2.77;;;0.80;;
3083;SDS011;1552;51.952;7.618;2023-01-16T13:26:14;0.87;;;0.80;;
3083;SDS011;1552;51.952;7.618;2023-01-16T13:28:42;3.93;;;1.07;;
3083;SDS011;1552;51.952;7.618;2023-01-16T13:31:13;2.73;;;0.90;;
3083;SDS011;1552;51.952;7.618;2023-01-16T13:33:43;1.80;;;1.00;;
3083;SDS011;1552;51.952;7.618;2023-01-16T13:36:13;1.70;;;0.90;;
3083;SDS011;1552;51.952;7.618;2023-01-16T13:38:43;1.47;;;1.03;;
3083;SDS011;1552;51.952;7.618;2023-01-16T13:41:14;1.83;;;1.10;;
3083;SDS011;1552;51.952;7.618;2023-01-16T13:43:43;1.03;;;0.83;;
3083;SDS011;1552;51.952;7.618;2023-01-16T13:46:30;4.07;;;0.70;;
3083;SDS011;1552;51.952;7.618;2023-01-16T13:48:58;2.00;;;0.90;;
3083;SDS011;1552;51.952;7.618;2023-01-16T13:51:25;3.70;;;1.10;;
3083;SDS011;1552;51.952;7.618;2023-01-16T13:53:52;3.73;;;0.77;;
3083;SDS011;1552;51.952;7.618;2023-01-16T13:56:21;3.47;;;0.83;;
3083;SDS011;1552;51.952;7.618;2023-01-16T13:58:49;1.03;;;0.90;;
3083;SDS011;1552;51.952;7.618;2023-01-16T14:01:31;1.37;;;0.90;;
3083;SDS011;1552;51.952;7.618;2023-01-16T14:06:52;1.00;;;0.80;;
3083;SDS011;1552;51.952;7.618;2023-01-16T14:09:58;0.70;;;0.70;;
3083;SDS011;1552;51.952;7.618;2023-01-16T14:12:31;3.37;;;1.17;;
3083;SDS011;1552;51.952;7.618;2023-01-16T14:15:08;3.30;;;1.60;;
3083;SDS011;1552;51.952;7.618;2023-01-16T14:18:01;2.53;;;1.10;;
3083;SDS011;1552;51.952;7.618;2023-01-16T14:20:41;2.10;;;0.90;;
3083;SDS011;1552;51.952;7.618;2023-01-16T14:23:13;0.83;;;0.80;;
3083;SDS011;1552;51.952;7.618;2023-01-16T14:25:59;3.37;;;1.00;;
3083;SDS011;1552;51.952;7.618;2023-01-16T14:28:26;1.73;;;0.97;;
3083;SDS011;1552;51.952;7.618;2023-01-16T14:30:52;0.90;;;0.90;;
3083;SDS011;1552;51.952;7.618;2023-01-16T14:33:20;0.97;;;0.80;;
3083;SDS011;1552;51.952;7.618;2023-01-16T14:35:47;1.17;;;0.80;;
3083;SDS011;1552;51.952;7.618;2023-01-16T14:38:16;1.70;;;0.80;;
3083;SDS011;1552;51.952;7.618;2023-01-16T14:40:46;0.93;;;0.83;;
3083;SDS011;1552;51.952;7.618;2023-01-16T14:43:31;2.27;;;1.00;;
3083;SDS011;1552;51.952;7.618;2023-01-16T14:46:27;1.20;;;0.80;;
3083;SDS011;1552;51.952;7.618;2023-01-16T14:52:16;1.27;;;1.00;;
3083;SDS011;1552;51.952;7.618;2023-01-16T14:55:12;2.67;;;1.00;;
3083;SDS011;1552;51.952;7.618;2023-01-16T14:57:39;1.90;;;0.90;;
3083;SDS011;1552;51.952;7.618;2023-01-16T15:00:07;1.10;;;0.80;;
3083;SDS011;1552;51.952;7.618;2023-01-16T15:02:35;1.57;;;1.07;;
3083;SDS011;1552;51.952;7.618;2023-01-16T15:05:05;1.93;;;0.90;;
3083;SDS011;1552;51.952;7.618;2023-01-16T15:07:35;0.80;;;0.80;;
3083;SDS011;1552;51.952;7.618;2023-01-16T15:10:03;1.10;;;1.00;;
3083;SDS011;1552;51.952;7.618;2023-01-16T15:12:35;3.07;;;1.10;;
3083;SDS011;1552;51.952;7.618;2023-01-16T15:15:01;1.10;;;0.97;;
3083;SDS011;1552;51.952;7.618;2023-01-16T15:17:28;1.60;;;0.97;;
3083;SDS011;1552;51.952;7.618;2023-01-16T15:20:19;1.03;;;0.90;;
3083;SDS011;1552;51.952;7.618;2023-01-16T15:23:06;2.03;;;1.83;;
3083;SDS011;1552;51.952;7.618;2023-01-16T15:25:44;2.30;;;0.80;;
3083;SDS011;1552;51.952;7.618;2023-01-16T15:28:15;0.90;;;0.90;;
3083;SDS011;1552;51.952;7.618;2023-01-16T15:30:43;2.27;;;0.83;;
3083;SDS011;1552;51.952;7.618;2023-01-16T15:33:22;1.87;;;0.93;;
3083;SDS011;1552;51.952;7.618;2023-01-16T15:36:09;0.83;;;0.83;;
3083;SDS011;1552;51.952;7.618;2023-01-16T15:38:43;1.17;;;0.80;;
3083;SDS011;1552;51.952;7.618;2023-01-16T15:41:09;0.63;;;0.60;;
3083;SDS011;1552;51.952;7.618;2023-01-16T15:43:36;0.83;;;0.73;;
3083;SDS011;1552;51.952;7.618;2023-01-16T15:46:21;1.03;;;0.80;;
3083;SDS011;1552;51.952;7.618;2023-01-16T15:49:01;2.33;;;1.13;;
3083;SDS011;1552;51.952;7.618;2023-01-16T15:51:31;1.30;;;1.13;;
3083;SDS011;1552;51.952;7.618;2023-01-16T15:53:59;2.13;;;1.20;;
3083;SDS011;1552;51.952;7.618;2023-01-16T15:56:27;1.27;;;1.17;;